createdAt,value
2017-09-04T00:01:15.088Z,50.80
2017-09-04T00:03:42.623Z,50.70
2017-09-04T00:06:10.145Z,50.70
2017-09-04T00:08:37.698Z,50.80
2017-09-04T00:11:05.426Z,51.50
2017-09-04T00:13:32.930Z,50.70
2017-09-04T00:16:00.484Z,50.70
2017-09-04T00:18:27.989Z,50.70
2017-09-04T00:20:55.498Z,50.90
2017-09-04T00:23:23.001Z,50.90
2017-09-04T00:25:50.514Z,50.90
2017-09-04T00:28:18.173Z,50.80
2017-09-04T00:30:45.673Z,50.80
2017-09-04T00:33:13.218Z,50.80
2017-09-04T00:35:40.714Z,50.80
2017-09-04T00:38:08.223Z,50.90
2017-09-04T00:40:35.724Z,51.00
2017-09-04T00:43:03.241Z,50.80
2017-09-04T00:45:30.749Z,51.00
2017-09-04T00:47:58.265Z,50.90
2017-09-04T00:50:25.785Z,51.00
2017-09-04T00:52:53.356Z,50.90
2017-09-04T00:55:20.914Z,51.00
2017-09-04T00:57:48.537Z,51.00
2017-09-04T01:00:16.069Z,51.20
2017-09-04T01:02:43.692Z,51.00
2017-09-04T01:05:11.208Z,50.90
2017-09-04T01:07:38.727Z,50.90
2017-09-04T01:10:06.253Z,50.90
2017-09-04T01:12:33.769Z,50.90
2017-09-04T01:15:01.440Z,51.00
2017-09-04T01:17:28.937Z,51.00
2017-09-04T01:19:56.451Z,51.00
2017-09-04T01:22:23.976Z,51.00
2017-09-04T01:24:51.468Z,51.10
2017-09-04T01:27:18.996Z,51.20
2017-09-04T01:29:46.486Z,51.20
2017-09-04T01:32:14.017Z,51.20
2017-09-04T01:34:41.560Z,51.10
2017-09-04T01:37:09.077Z,51.30
2017-09-04T01:39:36.599Z,51.30
2017-09-04T01:42:04.094Z,51.10
2017-09-04T01:44:31.605Z,51.20
2017-09-04T01:46:59.110Z,51.30
2017-09-04T01:49:26.655Z,51.20
2017-09-04T01:51:54.181Z,51.30
2017-09-04T01:54:21.701Z,51.30
2017-09-04T01:56:49.209Z,51.30
2017-09-04T01:59:16.726Z,51.40
2017-09-04T02:01:44.249Z,51.30
2017-09-04T02:04:11.745Z,51.30
2017-09-04T02:06:39.263Z,51.40
2017-09-04T02:09:06.789Z,51.30
2017-09-04T02:11:34.290Z,51.30
2017-09-04T02:14:01.822Z,51.30
2017-09-04T02:16:29.328Z,51.20
2017-09-04T02:18:56.841Z,51.30
2017-09-04T02:21:24.351Z,51.30
2017-09-04T02:23:51.900Z,51.30
2017-09-04T02:26:19.397Z,51.30
2017-09-04T02:28:46.927Z,51.30
2017-09-04T02:31:14.426Z,51.30
2017-09-04T02:33:41.913Z,51.30
2017-09-04T02:36:09.455Z,51.40
2017-09-04T02:38:36.967Z,51.20
2017-09-04T02:41:04.461Z,51.30
2017-09-04T02:43:32.080Z,51.30
2017-09-04T02:45:59.716Z,51.40
2017-09-04T02:48:27.225Z,51.30
2017-09-04T02:50:54.745Z,51.30
2017-09-04T02:53:22.336Z,51.30
2017-09-04T02:55:49.858Z,51.30
2017-09-04T02:58:17.404Z,51.40
2017-09-04T03:00:45.005Z,51.50
2017-09-04T03:03:12.502Z,51.40
2017-09-04T03:05:40.013Z,51.40
2017-09-04T03:08:07.514Z,51.40
2017-09-04T03:10:35.030Z,51.40
2017-09-04T03:13:02.557Z,52.10
2017-09-04T03:15:30.057Z,51.40
2017-09-04T03:17:57.566Z,51.30
2017-09-04T03:20:25.066Z,51.30
2017-09-04T03:22:52.586Z,51.50
2017-09-04T03:25:20.104Z,51.30
2017-09-04T03:27:47.613Z,51.30
2017-09-04T03:30:15.191Z,51.20
2017-09-04T03:32:42.843Z,51.50
2017-09-04T03:35:10.429Z,51.40
2017-09-04T03:37:38.173Z,51.30
2017-09-04T03:40:05.733Z,51.30
2017-09-04T03:42:33.256Z,51.30
2017-09-04T03:45:00.828Z,51.30
2017-09-04T03:47:28.409Z,51.40
2017-09-04T03:49:55.923Z,51.30
2017-09-04T03:52:23.433Z,51.40
2017-09-04T03:54:50.936Z,51.40
2017-09-04T03:57:18.448Z,51.40
2017-09-04T03:59:45.952Z,51.40
2017-09-04T04:02:13.457Z,51.40
2017-09-04T04:04:40.993Z,51.40
2017-09-04T04:07:08.504Z,51.40
2017-09-04T04:09:35.986Z,51.40
2017-09-04T04:12:03.618Z,51.50
2017-09-04T04:14:31.229Z,51.50
2017-09-04T04:16:58.738Z,51.50
2017-09-04T04:19:26.261Z,51.50
2017-09-04T04:21:53.769Z,51.70
2017-09-04T04:24:21.336Z,51.80
2017-09-04T04:26:48.871Z,51.90
2017-09-04T04:29:16.429Z,51.90
2017-09-04T04:31:43.964Z,52.00
2017-09-04T04:34:11.632Z,52.00
2017-09-04T04:36:39.206Z,52.20
2017-09-04T04:39:06.719Z,52.20
2017-09-04T04:41:34.254Z,52.10
2017-09-04T04:44:01.752Z,52.20
2017-09-04T04:46:29.281Z,52.20
2017-09-04T04:48:56.777Z,52.20
2017-09-04T04:51:24.282Z,52.20
2017-09-04T04:53:51.821Z,52.20
2017-09-04T04:56:20.323Z,52.20
2017-09-04T04:58:47.832Z,52.10
2017-09-04T05:01:15.351Z,52.00
2017-09-04T05:03:42.874Z,51.90
2017-09-04T05:06:10.373Z,51.70
2017-09-04T05:08:37.916Z,51.50
2017-09-04T05:11:05.516Z,51.00
2017-09-04T05:13:33.073Z,50.60
2017-09-04T05:16:00.622Z,50.40
2017-09-04T05:18:28.105Z,50.40
2017-09-04T05:20:55.639Z,50.30
2017-09-04T05:23:23.136Z,50.20
2017-09-04T05:25:50.656Z,50.20
2017-09-04T05:28:18.285Z,50.00
2017-09-04T05:30:45.789Z,49.70
2017-09-04T05:33:13.325Z,49.70
2017-09-04T05:35:40.862Z,49.60
2017-09-04T05:38:08.390Z,49.60
2017-09-04T05:40:35.890Z,49.60
2017-09-04T05:43:03.428Z,49.50
2017-09-04T05:45:30.946Z,49.50
2017-09-04T05:47:58.485Z,49.50
2017-09-04T05:50:26.012Z,49.40
2017-09-04T05:52:53.524Z,49.20
2017-09-04T05:55:21.094Z,49.20
2017-09-04T05:57:48.646Z,49.20
2017-09-04T06:00:16.253Z,49.30
2017-09-04T06:02:43.801Z,49.40
2017-09-04T06:05:11.364Z,49.30
2017-09-04T06:07:39.008Z,49.20
2017-09-04T06:10:18.902Z,49.20
2017-09-04T06:12:46.656Z,49.10
2017-09-04T06:15:14.166Z,49.00
2017-09-04T06:17:41.693Z,48.90
2017-09-04T06:20:09.222Z,49.00
2017-09-04T06:22:36.746Z,49.00
2017-09-04T06:25:04.260Z,49.00
2017-09-04T06:27:31.761Z,49.10
2017-09-04T06:29:59.292Z,49.00
2017-09-04T06:32:26.798Z,48.90
2017-09-04T06:34:54.344Z,49.00
2017-09-04T06:37:21.842Z,48.80
2017-09-04T06:39:49.409Z,49.00
2017-09-04T06:42:17.037Z,48.90
2017-09-04T06:44:44.547Z,49.00
2017-09-04T06:47:12.124Z,49.00
2017-09-04T06:49:39.630Z,48.90
2017-09-04T06:52:07.136Z,48.90
2017-09-04T06:54:34.657Z,48.80
2017-09-04T06:57:02.253Z,48.70
2017-09-04T06:59:30.113Z,48.70
2017-09-04T07:01:57.607Z,48.80
2017-09-04T07:04:25.102Z,48.90
2017-09-04T07:06:52.633Z,49.00
2017-09-04T07:09:20.163Z,49.20
2017-09-04T07:11:47.658Z,49.10
2017-09-04T07:14:15.381Z,49.30
2017-09-04T07:16:42.870Z,49.20
2017-09-04T07:19:10.445Z,49.20
2017-09-04T07:21:37.990Z,49.20
2017-09-04T07:24:05.512Z,49.90
2017-09-04T07:26:33.043Z,49.00
2017-09-04T07:29:00.561Z,49.10
2017-09-04T07:31:28.082Z,49.10
2017-09-04T07:33:55.728Z,49.00
2017-09-04T07:36:23.230Z,49.10
2017-09-04T07:38:50.741Z,49.10
2017-09-04T07:41:18.266Z,49.20
2017-09-04T07:43:45.775Z,49.30
2017-09-04T07:46:13.293Z,49.30
2017-09-04T07:48:41.001Z,49.40
2017-09-04T07:51:08.680Z,49.40
2017-09-04T07:53:36.169Z,49.50
2017-09-04T07:56:03.697Z,49.50
2017-09-04T07:58:31.201Z,49.40
2017-09-04T08:00:58.729Z,49.30
2017-09-04T08:03:26.287Z,49.50
2017-09-04T08:05:53.786Z,49.40
2017-09-04T08:08:21.289Z,49.40
2017-09-04T08:10:48.813Z,49.30
2017-09-04T08:13:16.357Z,49.30
2017-09-04T08:15:43.887Z,49.30
2017-09-04T08:18:11.403Z,49.40
2017-09-04T08:20:38.876Z,49.40
2017-09-04T08:23:06.382Z,49.40
2017-09-04T08:25:33.903Z,49.40
2017-09-04T08:28:01.461Z,49.40
2017-09-04T08:30:28.966Z,49.40
2017-09-04T08:32:56.499Z,49.30
2017-09-04T08:35:24.263Z,49.30
2017-09-04T08:37:51.786Z,49.40
2017-09-04T08:40:19.305Z,49.40
2017-09-04T08:42:46.913Z,49.30
2017-09-04T08:45:14.521Z,49.20
2017-09-04T08:47:42.176Z,49.40
2017-09-04T08:50:10.521Z,49.40
2017-09-04T08:52:38.031Z,49.30
2017-09-04T08:55:05.569Z,49.30
2017-09-04T08:57:33.087Z,49.40
2017-09-04T09:00:00.577Z,49.40
2017-09-04T09:02:28.105Z,49.40
2017-09-04T09:04:55.615Z,49.30
2017-09-04T09:07:23.146Z,49.40
2017-09-04T09:09:50.657Z,49.30
2017-09-04T09:12:18.166Z,49.20
2017-09-04T09:14:45.698Z,49.10
2017-09-04T09:17:13.207Z,49.00
2017-09-04T09:19:40.717Z,49.00
2017-09-04T09:22:08.245Z,49.20
2017-09-04T09:24:35.882Z,49.20
2017-09-04T09:27:03.435Z,49.00
2017-09-04T09:29:31.211Z,49.00
2017-09-04T09:31:58.714Z,49.00
2017-09-04T09:34:26.237Z,49.00
2017-09-04T09:36:53.898Z,48.90
2017-09-04T09:39:21.392Z,48.90
2017-09-04T09:41:48.962Z,48.90
2017-09-04T09:44:16.481Z,49.00
2017-09-04T09:46:43.997Z,48.90
2017-09-04T09:49:11.525Z,48.90
2017-09-04T09:51:39.046Z,48.80
2017-09-04T09:54:06.566Z,48.80
2017-09-04T09:56:34.079Z,48.70
2017-09-04T09:59:01.587Z,48.50
2017-09-04T10:01:29.107Z,48.40
2017-09-04T10:03:56.623Z,48.90
2017-09-04T10:06:24.241Z,48.20
2017-09-04T10:08:51.776Z,48.30
2017-09-04T10:11:19.277Z,48.20
2017-09-04T10:13:46.814Z,48.10
2017-09-04T10:16:14.300Z,48.00
2017-09-04T10:18:41.989Z,47.90
2017-09-04T10:21:09.494Z,47.90
2017-09-04T10:23:37.127Z,47.90
2017-09-04T10:26:04.699Z,47.80
2017-09-04T10:28:32.231Z,47.80
2017-09-04T10:30:59.737Z,47.70
2017-09-04T10:33:27.327Z,47.70
2017-09-04T10:35:54.841Z,47.50
2017-09-04T10:38:22.356Z,47.40
2017-09-04T10:40:49.880Z,47.40
2017-09-04T10:43:17.375Z,47.60
2017-09-04T10:45:44.910Z,47.50
2017-09-04T10:48:12.422Z,47.40
2017-09-04T10:50:39.949Z,47.10
2017-09-04T10:53:07.493Z,47.10
2017-09-04T10:55:35.008Z,47.00
2017-09-04T10:58:02.527Z,46.90
2017-09-04T11:00:30.096Z,47.00
2017-09-04T11:02:57.603Z,47.00
2017-09-04T11:05:25.122Z,47.20
2017-09-04T11:07:52.672Z,47.00
2017-09-04T11:10:20.256Z,47.20
2017-09-04T11:12:48.018Z,47.00
2017-09-04T11:15:15.595Z,46.70
2017-09-04T11:17:43.121Z,46.70
2017-09-04T11:20:10.675Z,46.80
2017-09-04T11:22:38.375Z,46.70
2017-09-04T11:25:05.875Z,46.80
2017-09-04T11:27:33.435Z,46.80
2017-09-04T11:30:00.963Z,47.00
2017-09-04T11:32:28.478Z,47.00
2017-09-04T11:34:55.993Z,46.90
2017-09-04T11:37:23.514Z,46.90
2017-09-04T11:39:51.083Z,47.00
2017-09-04T11:42:18.732Z,47.00
2017-09-04T11:44:46.261Z,47.10
2017-09-04T11:47:13.770Z,47.30
2017-09-04T11:49:41.289Z,47.20
2017-09-04T11:52:08.761Z,47.10
2017-09-04T11:54:36.284Z,47.10
2017-09-04T11:57:03.818Z,47.00
2017-09-04T11:59:31.375Z,46.80
2017-09-04T12:01:58.873Z,46.70
2017-09-04T12:04:26.433Z,46.70
2017-09-04T12:06:54.092Z,46.50
2017-09-04T12:09:21.620Z,46.70
2017-09-04T12:11:49.283Z,46.80
2017-09-04T12:14:16.789Z,46.60
2017-09-04T12:16:44.338Z,46.50
2017-09-04T12:19:11.915Z,46.60
2017-09-04T12:21:39.449Z,46.50
2017-09-04T12:24:07.042Z,46.30
2017-09-04T12:26:34.627Z,46.20
2017-09-04T12:29:02.190Z,46.20
2017-09-04T12:31:29.704Z,46.10
2017-09-04T12:33:57.238Z,46.00
2017-09-04T12:36:24.759Z,45.90
2017-09-04T12:38:52.278Z,45.90
2017-09-04T12:41:19.828Z,45.80
2017-09-04T12:43:47.335Z,45.80
2017-09-04T12:46:14.905Z,45.60
2017-09-04T12:48:42.406Z,45.30
2017-09-04T12:51:09.952Z,45.30
2017-09-04T12:53:37.474Z,45.40
2017-09-04T12:56:04.980Z,45.30
2017-09-04T12:58:32.531Z,45.70
2017-09-04T13:01:00.054Z,45.60
2017-09-04T13:03:27.575Z,45.40
2017-09-04T13:05:55.118Z,45.50
2017-09-04T13:08:22.693Z,45.50
2017-09-04T13:10:55.845Z,45.50
2017-09-04T13:13:23.381Z,45.40
2017-09-04T13:15:56.515Z,45.50
2017-09-04T13:18:29.775Z,45.80
2017-09-04T13:21:03.129Z,45.70
2017-09-04T13:23:36.289Z,45.80
2017-09-04T13:29:13.425Z,45.20
2017-09-04T13:34:40.322Z,45.00
2017-09-04T13:37:27.715Z,44.80
2017-09-04T13:40:00.921Z,45.00
2017-09-04T13:45:48.127Z,44.70
2017-09-04T13:48:21.360Z,45.60
2017-09-04T13:50:48.978Z,44.50
2017-09-04T13:53:22.227Z,44.30
2017-09-04T13:55:55.521Z,44.20
2017-09-04T13:58:24.690Z,43.60
2017-09-04T14:04:09.874Z,43.80
2017-09-04T14:06:48.241Z,45.00
2017-09-04T14:09:35.659Z,44.20
2017-09-04T14:15:27.490Z,43.70
2017-09-04T14:18:10.663Z,43.90
2017-09-04T14:20:38.207Z,43.70
2017-09-04T14:23:05.846Z,43.70
2017-09-04T14:25:33.350Z,43.90
2017-09-04T14:28:00.874Z,44.40
2017-09-04T14:30:28.422Z,44.30
2017-09-04T14:32:55.957Z,44.00
2017-09-04T14:35:23.507Z,44.00
2017-09-04T14:37:51.043Z,43.80
2017-09-04T14:40:20.060Z,43.80
2017-09-04T14:46:08.137Z,43.50
2017-09-04T14:48:35.771Z,43.60
2017-09-04T14:51:03.430Z,43.60
2017-09-04T14:53:30.988Z,43.60
2017-09-04T14:55:58.522Z,43.50
2017-09-04T14:58:26.268Z,43.80
2017-09-04T15:00:53.808Z,43.80
2017-09-04T15:03:21.388Z,43.60
2017-09-04T15:05:48.975Z,43.80
2017-09-04T15:08:16.493Z,43.80
2017-09-04T15:10:44.021Z,43.80
2017-09-04T15:13:11.527Z,43.90
2017-09-04T15:15:39.061Z,43.70
2017-09-04T15:18:06.623Z,43.80
2017-09-04T15:20:34.142Z,43.80
2017-09-04T15:23:01.790Z,43.80
2017-09-04T15:25:29.302Z,43.90
2017-09-04T15:27:56.812Z,43.90
2017-09-04T15:30:24.359Z,44.10
2017-09-04T15:32:51.891Z,44.40
2017-09-04T15:35:19.448Z,44.70
2017-09-04T15:37:46.940Z,44.90
2017-09-04T15:40:14.486Z,45.00
2017-09-04T15:42:42.063Z,45.30
2017-09-04T15:45:09.587Z,45.70
2017-09-04T15:47:37.138Z,46.00
2017-09-04T15:50:04.669Z,46.40
2017-09-04T15:52:32.182Z,46.50
2017-09-04T15:54:59.761Z,46.70
2017-09-04T15:57:27.310Z,46.80
2017-09-04T15:59:55.013Z,47.00
2017-09-04T16:02:22.582Z,47.20
2017-09-04T16:04:50.115Z,47.30
2017-09-04T16:07:23.309Z,47.50
2017-09-04T16:09:50.878Z,47.60
2017-09-04T16:12:18.403Z,47.80
2017-09-04T16:14:46.867Z,47.10
2017-09-04T16:17:16.367Z,47.00
2017-09-04T16:19:45.388Z,46.40
2017-09-04T16:22:16.517Z,46.10
2017-09-04T16:24:48.609Z,45.90
2017-09-04T16:27:16.623Z,45.60
2017-09-04T16:29:59.810Z,45.70
2017-09-04T16:35:50.712Z,45.70
2017-09-04T16:38:22.380Z,46.00
2017-09-04T16:40:55.844Z,45.40
2017-09-04T16:43:25.953Z,45.40
2017-09-04T16:49:13.904Z,45.10
2017-09-04T16:51:56.328Z,45.10
2017-09-04T16:54:25.426Z,45.10
2017-09-04T17:00:02.544Z,44.90
2017-09-04T17:02:30.205Z,45.10
2017-09-04T17:04:57.791Z,45.00
2017-09-04T17:07:25.421Z,45.00
2017-09-04T17:09:53.930Z,45.00
2017-09-04T17:12:21.953Z,45.10
2017-09-04T17:14:49.548Z,45.10
2017-09-04T17:17:34.033Z,45.30
2017-09-04T17:20:01.690Z,45.60
2017-09-04T17:22:31.220Z,45.90
2017-09-04T17:24:59.715Z,46.20
2017-09-04T17:27:27.247Z,46.30
2017-09-04T17:29:54.897Z,46.60
2017-09-04T17:32:22.446Z,46.60
2017-09-04T17:34:50.003Z,47.00
2017-09-04T17:37:17.569Z,47.20
2017-09-04T17:39:45.158Z,47.10
2017-09-04T17:42:12.740Z,47.30
2017-09-04T17:44:40.526Z,47.40
2017-09-04T17:47:08.072Z,47.70
2017-09-04T17:49:35.640Z,47.80
2017-09-04T17:52:03.170Z,47.80
2017-09-04T17:54:30.889Z,47.70
2017-09-04T17:56:58.469Z,47.90
2017-09-04T17:59:26.098Z,47.90
2017-09-04T18:01:53.635Z,47.90
2017-09-04T18:04:21.185Z,47.90
2017-09-04T18:06:48.724Z,48.00
2017-09-04T18:09:16.547Z,48.10
2017-09-04T18:11:44.858Z,48.30
2017-09-04T18:14:12.423Z,48.30
2017-09-04T18:16:39.991Z,48.30
2017-09-04T18:19:07.645Z,48.50
2017-09-04T18:21:36.012Z,48.80
2017-09-04T18:24:03.584Z,48.70
2017-09-04T18:26:31.244Z,48.80
2017-09-04T18:28:59.043Z,48.90
2017-09-04T18:31:26.630Z,49.70
2017-09-04T18:33:54.212Z,49.00
2017-09-04T18:36:21.803Z,49.00
2017-09-04T18:38:49.349Z,49.70
2017-09-04T18:41:16.915Z,49.40
2017-09-04T18:43:44.516Z,49.50
2017-09-04T18:46:12.205Z,49.50
2017-09-04T18:48:39.772Z,49.50
2017-09-04T18:51:07.335Z,49.70
2017-09-04T18:53:34.964Z,49.70
2017-09-04T18:56:02.513Z,49.90
2017-09-04T18:58:30.054Z,49.90
2017-09-04T19:00:57.651Z,49.70
2017-09-04T19:03:25.182Z,49.70
2017-09-04T19:05:52.739Z,49.70
2017-09-04T19:08:20.347Z,49.60
2017-09-04T19:10:47.872Z,49.60
2017-09-04T19:13:15.451Z,49.60
2017-09-04T19:15:43.144Z,49.70
2017-09-04T19:18:10.624Z,49.60
2017-09-04T19:20:38.300Z,49.50
2017-09-04T19:23:06.036Z,49.70
2017-09-04T19:25:33.800Z,49.70
2017-09-04T19:28:01.355Z,49.70
2017-09-04T19:30:28.968Z,49.80
2017-09-04T19:32:56.524Z,49.90
2017-09-04T19:35:24.107Z,49.90
2017-09-04T19:37:51.703Z,50.00
2017-09-04T19:40:19.356Z,50.00
2017-09-04T19:42:47.114Z,50.10
2017-09-04T19:45:14.650Z,50.10
2017-09-04T19:47:42.235Z,50.20
2017-09-04T19:50:09.775Z,50.20
2017-09-04T19:52:37.305Z,50.30
2017-09-04T19:55:05.043Z,50.20
2017-09-04T19:57:32.651Z,50.20
2017-09-04T20:00:00.278Z,50.30
2017-09-04T20:02:27.946Z,50.30
2017-09-04T20:04:55.510Z,50.40
2017-09-04T20:07:25.111Z,50.30
2017-09-04T20:09:52.704Z,50.20
2017-09-04T20:12:20.336Z,51.10
2017-09-04T20:14:47.881Z,50.40
2017-09-04T20:17:15.403Z,50.40
2017-09-04T20:19:42.966Z,50.30
2017-09-04T20:22:10.497Z,50.30
2017-09-04T20:24:38.036Z,50.30
2017-09-04T20:27:05.584Z,50.30
2017-09-04T20:29:33.181Z,50.30
2017-09-04T20:32:00.824Z,50.30
2017-09-04T20:34:28.391Z,50.30
2017-09-04T20:36:55.982Z,50.20
2017-09-04T20:39:23.512Z,50.30
2017-09-04T20:41:51.060Z,50.30
2017-09-04T20:44:18.654Z,50.20
2017-09-04T20:46:46.182Z,50.20
2017-09-04T20:49:13.732Z,50.20
2017-09-04T20:51:42.085Z,50.30
2017-09-04T20:54:09.605Z,50.40
2017-09-04T20:56:37.152Z,50.50
2017-09-04T20:59:04.754Z,50.50
2017-09-04T21:01:32.355Z,50.50
2017-09-04T21:04:00.016Z,50.70
2017-09-04T21:06:27.521Z,50.60
2017-09-04T21:08:55.042Z,50.70
2017-09-04T21:11:22.586Z,50.70
2017-09-04T21:13:50.096Z,50.70
2017-09-04T21:16:17.633Z,50.70
2017-09-04T21:18:45.234Z,50.70
2017-09-04T21:21:12.804Z,50.80
2017-09-04T21:23:40.344Z,50.70
2017-09-04T21:26:07.874Z,50.70
2017-09-04T21:28:35.377Z,50.80
2017-09-04T21:31:02.923Z,50.90
2017-09-04T21:33:31.212Z,51.20
2017-09-04T21:35:58.762Z,50.90
2017-09-04T21:38:26.416Z,50.90
2017-09-04T21:40:53.916Z,50.90
2017-09-04T21:43:21.463Z,50.90
2017-09-04T21:45:49.031Z,50.90
2017-09-04T21:48:16.554Z,50.80
2017-09-04T21:50:44.087Z,50.80
2017-09-04T21:53:11.607Z,50.90
2017-09-04T21:55:39.145Z,50.90
2017-09-04T21:58:06.700Z,50.80
2017-09-04T22:00:34.246Z,50.80
2017-09-04T22:03:01.754Z,50.80
2017-09-04T22:05:29.297Z,50.80
2017-09-04T22:07:56.846Z,50.70
2017-09-04T22:10:24.397Z,50.70
2017-09-04T22:12:51.887Z,50.60
2017-09-04T22:15:19.489Z,50.80
2017-09-04T22:17:47.214Z,50.60
2017-09-04T22:20:14.849Z,50.60
2017-09-04T22:22:42.414Z,50.60
2017-09-04T22:25:09.947Z,50.60
2017-09-04T22:27:37.455Z,50.60
2017-09-04T22:30:04.982Z,50.60
2017-09-04T22:32:32.501Z,50.70
2017-09-04T22:35:00.043Z,50.80
2017-09-04T22:37:28.322Z,50.80
2017-09-04T22:39:55.847Z,51.40
2017-09-04T22:42:23.360Z,50.80
2017-09-04T22:44:50.891Z,50.80
2017-09-04T22:47:18.393Z,50.70
2017-09-04T22:49:45.909Z,50.60
2017-09-04T22:52:13.433Z,50.70
2017-09-04T22:54:41.087Z,50.80
2017-09-04T22:57:08.650Z,50.90
2017-09-04T22:59:36.175Z,50.80
2017-09-04T23:02:03.865Z,50.80
2017-09-04T23:04:31.390Z,50.80
2017-09-04T23:06:58.910Z,50.80
2017-09-04T23:09:26.432Z,50.80
2017-09-04T23:11:53.962Z,50.80
2017-09-04T23:14:21.478Z,50.90
2017-09-04T23:16:48.986Z,50.90
2017-09-04T23:19:16.553Z,50.90
2017-09-04T23:21:44.165Z,51.00
2017-09-04T23:24:11.668Z,51.00
2017-09-04T23:26:39.213Z,50.90
2017-09-04T23:29:06.727Z,50.90
2017-09-04T23:31:34.253Z,50.20
2017-09-04T23:34:01.802Z,50.90
2017-09-04T23:36:29.299Z,50.90
2017-09-04T23:38:56.814Z,51.00
2017-09-04T23:41:24.344Z,50.90
2017-09-04T23:43:51.914Z,50.80
2017-09-04T23:46:19.420Z,51.00
2017-09-04T23:48:46.979Z,51.00
2017-09-04T23:51:14.544Z,50.90
2017-09-04T23:53:42.138Z,50.90
2017-09-04T23:56:09.752Z,50.90
2017-09-04T23:58:37.355Z,50.90
